Time;durP1;ratioP1;P1;durP2;ratioP2;P2;SDS_P1;SDS_P2;PMS_P1;PMS_P2;Temp;Humidity;BMP_temperature;BMP_pressure;BME280_temperature;BME280_humidity;BME280_pressure;Samples;Min_cycle;Max_cycle;Signal;HPM_P1;HPM_P2
2021/07/25 00:01:29;;;;;;;15.53;14.07;;;24.80;83.10;;;;;;5042169;28;20219;-70
2021/07/25 00:03:57;;;;;;;17.87;13.87;;;24.70;83.30;;;;;;5042890;28;20800;-70
2021/07/25 00:06:30;;;;;;;19.53;13.50;;;24.70;83.50;;;;;;5043766;28;20202;-70
2021/07/25 00:08:57;;;;;;;15.77;14.07;;;24.70;84.20;;;;;;5047979;28;20210;-70
2021/07/25 00:11:25;;;;;;;17.70;14.00;;;24.70;84.50;;;;;;5045744;28;20218;-70
2021/07/25 00:13:54;;;;;;;16.27;14.13;;;24.60;84.70;;;;;;5046105;28;20281;-70
2021/07/25 00:16:21;;;;;;;16.33;14.70;;;24.60;85.20;;;;;;5045497;28;20229;-70
2021/07/25 00:18:48;;;;;;;16.63;14.60;;;24.60;85.50;;;;;;5043934;28;20234;-70
2021/07/25 00:21:15;;;;;;;16.03;14.47;;;24.60;85.70;;;;;;5046187;28;20215;-70
2021/07/25 00:23:46;;;;;;;19.70;14.53;;;24.60;85.90;;;;;;5045936;28;20537;-70
2021/07/25 00:26:14;;;;;;;16.23;14.07;;;24.50;86.20;;;;;;5045959;28;20226;-70
2021/07/25 00:28:41;;;;;;;16.37;14.20;;;24.50;86.60;;;;;;5045371;28;20287;-70
2021/07/25 00:31:08;;;;;;;21.03;14.07;;;24.50;86.70;;;;;;5045936;28;20538;-70
2021/07/25 00:33:36;;;;;;;22.27;14.90;;;24.60;86.80;;;;;;5045517;28;20214;-70
2021/07/25 00:36:08;;;;;;;19.43;15.37;;;24.60;87.00;;;;;;5045439;28;20215;-70
2021/07/25 00:38:36;;;;;;;16.77;14.77;;;24.60;87.20;;;;;;5045761;28;20254;-70
2021/07/25 00:41:11;;;;;;;18.13;16.20;;;24.60;87.00;;;;;;5048309;28;20298;-70
2021/07/25 00:43:39;;;;;;;20.53;15.83;;;24.60;87.10;;;;;;5045244;28;20587;-70
2021/07/25 00:46:06;;;;;;;18.63;14.77;;;24.60;87.10;;;;;;5046786;28;20240;-70
2021/07/25 00:48:35;;;;;;;17.73;15.90;;;24.60;87.10;;;;;;5039824;28;20230;-70
2021/07/25 00:51:04;;;;;;;17.87;15.90;;;24.60;87.10;;;;;;5045764;28;20211;-70
2021/07/25 00:53:34;;;;;;;17.87;15.47;;;24.60;87.10;;;;;;5043802;28;20207;-70
2021/07/25 00:56:04;;;;;;;18.03;16.13;;;24.60;87.20;;;;;;5047018;28;20712;-70
2021/07/25 00:58:31;;;;;;;16.33;14.23;;;24.60;87.20;;;;;;5039532;28;20207;-70
2021/07/25 01:00:58;;;;;;;17.10;15.30;;;24.60;87.20;;;;;;5038728;28;20241;-70
2021/07/25 01:03:53;;;;;;;16.23;14.50;;;24.60;87.20;;;;;;5046912;28;20240;-70
2021/07/25 01:06:58;;;;;;;16.07;14.47;;;24.60;87.20;;;;;;5043546;28;20207;-70
2021/07/25 01:09:35;;;;;;;16.57;15.07;;;24.50;87.10;;;;;;5039866;28;20218;-70
2021/07/25 01:12:11;;;;;;;17.47;14.93;;;24.50;87.30;;;;;;5045358;28;20283;-70
2021/07/25 01:14:39;;;;;;;16.80;15.07;;;24.50;87.50;;;;;;5045740;28;20222;-70
2021/07/25 01:17:29;;;;;;;22.17;15.20;;;24.50;87.60;;;;;;5043325;28;20624;-70
2021/07/25 01:20:06;;;;;;;16.53;14.83;;;24.50;87.60;;;;;;5041766;28;20301;-70
2021/07/25 01:22:42;;;;;;;18.70;15.30;;;24.50;87.70;;;;;;5045604;28;20218;-70
2021/07/25 01:25:14;;;;;;;18.27;16.33;;;24.50;88.00;;;;;;5042772;28;20227;-70
2021/07/25 01:28:00;;;;;;;20.50;15.00;;;24.50;88.20;;;;;;5039502;28;20288;-70
2021/07/25 01:30:31;;;;;;;18.50;15.30;;;24.50;88.20;;;;;;5043786;28;20240;-70
2021/07/25 01:33:02;;;;;;;16.97;14.73;;;24.50;88.30;;;;;;5045539;28;20286;-70
2021/07/25 01:35:31;;;;;;;16.87;15.07;;;24.50;88.30;;;;;;5043101;28;20221;-70
2021/07/25 01:37:59;;;;;;;16.37;14.73;;;24.50;88.30;;;;;;5044671;28;20638;-70
2021/07/25 01:40:26;;;;;;;17.70;15.60;;;24.60;88.40;;;;;;5042445;28;20317;-70
2021/07/25 01:42:55;;;;;;;19.57;13.73;;;24.60;88.40;;;;;;5045865;28;20236;-70
2021/07/25 01:45:23;;;;;;;18.70;13.57;;;24.60;88.20;;;;;;5042785;28;20268;-70
2021/07/25 01:47:50;;;;;;;16.83;13.43;;;24.70;88.20;;;;;;5045633;28;20218;-70
2021/07/25 01:50:17;;;;;;;15.67;13.53;;;24.70;88.20;;;;;;5042939;28;20248;-70
2021/07/25 01:52:45;;;;;;;14.73;12.50;;;24.70;88.20;;;;;;5045444;28;20233;-70
2021/07/25 01:55:12;;;;;;;16.90;13.00;;;24.70;88.30;;;;;;5043102;28;20678;-70
2021/07/25 01:57:39;;;;;;;18.87;13.27;;;24.70;88.30;;;;;;5045166;28;20214;-70
2021/07/25 02:00:08;;;;;;;15.63;13.13;;;24.70;88.30;;;;;;5043105;28;20234;-70
2021/07/25 02:02:35;;;;;;;16.93;13.33;;;24.70;88.30;;;;;;5044801;28;20681;-70
2021/07/25 02:05:05;;;;;;;14.03;12.63;;;24.70;88.40;;;;;;5043112;28;20218;-70
2021/07/25 02:07:32;;;;;;;16.30;14.03;;;24.70;88.40;;;;;;5041982;28;20268;-70
2021/07/25 02:09:59;;;;;;;16.07;12.87;;;24.80;88.50;;;;;;5044485;28;20742;-70
2021/07/25 02:12:26;;;;;;;19.43;13.40;;;24.70;88.60;;;;;;5042921;28;20222;-70
2021/07/25 02:14:53;;;;;;;14.67;13.30;;;24.70;89.00;;;;;;5044361;28;20686;-70
2021/07/25 02:17:20;;;;;;;15.63;13.93;;;24.60;89.80;;;;;;5045730;28;20222;-70
2021/07/25 02:19:47;;;;;;;17.83;14.27;;;24.60;89.40;;;;;;5043863;28;20236;-70
2021/07/25 02:22:14;;;;;;;22.40;14.87;;;24.60;89.70;;;;;;5043365;28;20218;-70
2021/07/25 02:24:41;;;;;;;15.70;14.10;;;24.60;89.70;;;;;;5043205;28;20225;-70
2021/07/25 02:27:08;;;;;;;16.90;14.20;;;24.60;90.00;;;;;;5043854;28;20206;-70
2021/07/25 02:29:35;;;;;;;19.73;14.37;;;24.60;90.10;;;;;;5042269;28;20226;-70
2021/07/25 02:32:03;;;;;;;20.93;14.73;;;24.60;90.20;;;;;;5043954;28;20214;-70
2021/07/25 02:34:30;;;;;;;19.50;14.93;;;24.60;90.30;;;;;;5042732;28;20644;-70
2021/07/25 02:36:57;;;;;;;19.00;15.20;;;24.60;90.30;;;;;;5041146;28;20219;-70
2021/07/25 02:39:24;;;;;;;18.63;16.67;;;24.60;90.40;;;;;;5043673;28;20628;-70
2021/07/25 02:41:51;;;;;;;18.17;16.30;;;24.60;90.60;;;;;;5042101;28;20651;-70
2021/07/25 02:44:18;;;;;;;18.80;15.70;;;24.60;90.60;;;;;;5044288;28;20257;-70
2021/07/25 02:46:45;;;;;;;16.97;15.27;;;24.60;90.70;;;;;;5041898;28;20215;-70
2021/07/25 02:49:12;;;;;;;24.73;16.70;;;24.50;90.80;;;;;;5044613;28;20214;-70
2021/07/25 02:51:39;;;;;;;18.77;16.50;;;24.60;90.90;;;;;;5040558;28;20240;-70
2021/07/25 02:54:06;;;;;;;18.80;16.60;;;24.50;90.90;;;;;;5044761;28;20214;-70
2021/07/25 02:56:32;;;;;;;18.77;16.80;;;24.50;91.00;;;;;;5041046;28;20215;-70
2021/07/25 02:59:00;;;;;;;20.23;16.43;;;24.50;91.10;;;;;;5037041;28;20210;-70
2021/07/25 03:01:27;;;;;;;20.37;17.50;;;24.50;91.20;;;;;;5036963;28;20246;-70
2021/07/25 03:03:54;;;;;;;21.47;16.60;;;24.50;91.20;;;;;;5044389;28;20221;-70
2021/07/25 03:06:21;;;;;;;18.27;15.60;;;24.50;91.20;;;;;;5041179;28;20219;-70
2021/07/25 03:08:48;;;;;;;18.37;16.47;;;24.50;91.20;;;;;;5044029;28;20249;-70
2021/07/25 03:11:16;;;;;;;21.67;16.77;;;24.40;91.30;;;;;;5041435;28;20225;-70
2021/07/25 03:13:43;;;;;;;20.67;16.63;;;24.40;91.30;;;;;;5043614;28;20225;-70
2021/07/25 03:16:10;;;;;;;20.13;16.80;;;24.40;91.30;;;;;;5041537;28;20215;-70
2021/07/25 03:18:37;;;;;;;24.60;17.20;;;24.40;91.40;;;;;;5043618;28;20226;-70
2021/07/25 03:21:05;;;;;;;22.47;16.50;;;24.30;91.30;;;;;;5044210;28;20234;-70
2021/07/25 03:23:33;;;;;;;17.77;15.77;;;24.30;91.30;;;;;;5041641;28;20227;-70
2021/07/25 03:26:00;;;;;;;17.93;16.03;;;24.30;91.30;;;;;;5043204;28;20249;-70
2021/07/25 03:28:27;;;;;;;18.73;15.83;;;24.30;91.60;;;;;;5041868;28;20210;-70
2021/07/25 03:30:54;;;;;;;20.63;15.80;;;24.30;91.30;;;;;;5042001;28;20218;-70
2021/07/25 03:33:21;;;;;;;18.73;14.53;;;24.20;91.20;;;;;;5042380;28;20226;-70
2021/07/25 03:35:48;;;;;;;17.53;14.00;;;24.20;91.30;;;;;;5042810;28;20219;-70
2021/07/25 03:38:16;;;;;;;16.80;13.30;;;24.30;91.30;;;;;;5041104;28;20634;-70
2021/07/25 03:40:44;;;;;;;14.00;11.53;;;24.20;91.10;;;;;;5041752;28;20643;-70
2021/07/25 03:43:13;;;;;;;13.70;11.90;;;24.30;90.90;;;;;;5042354;28;20215;-70
2021/07/25 03:45:45;;;;;;;16.33;13.83;;;24.30;90.50;;;;;;5042178;28;20219;-70
2021/07/25 03:48:12;;;;;;;17.57;12.97;;;24.30;90.40;;;;;;5041694;28;20217;-70
2021/07/25 03:50:40;;;;;;;16.27;12.83;;;24.20;90.30;;;;;;5042634;28;20745;-70
2021/07/25 03:53:08;;;;;;;15.63;12.60;;;24.20;90.20;;;;;;5041938;28;20595;-70
2021/07/25 03:55:36;;;;;;;15.90;13.50;;;24.20;90.40;;;;;;5042670;28;20277;-70
2021/07/25 03:58:03;;;;;;;16.77;13.60;;;24.10;90.20;;;;;;5041792;28;20265;-70
2021/07/25 04:00:30;;;;;;;20.27;13.43;;;24.10;90.20;;;;;;5042550;28;20246;-70
2021/07/25 04:02:57;;;;;;;17.60;14.00;;;24.10;90.30;;;;;;5041752;28;20218;-70
2021/07/25 04:05:25;;;;;;;13.97;12.00;;;24.10;90.30;;;;;;5042135;28;20215;-70
2021/07/25 04:07:52;;;;;;;13.87;12.30;;;24.20;90.30;;;;;;5039866;28;20215;-70
2021/07/25 04:10:19;;;;;;;13.90;12.50;;;24.20;90.20;;;;;;5043934;28;20610;-70
2021/07/25 04:12:47;;;;;;;16.40;12.77;;;24.20;90.20;;;;;;5042207;28;20223;-70
2021/07/25 04:15:15;;;;;;;13.87;12.47;;;24.20;90.10;;;;;;5043841;28;20223;-70
2021/07/25 04:17:42;;;;;;;17.20;13.17;;;24.20;90.00;;;;;;5042490;28;20661;-70
2021/07/25 04:20:09;;;;;;;15.70;14.07;;;24.20;90.00;;;;;;5041010;28;20322;-70
2021/07/25 04:22:38;;;;;;;15.03;12.97;;;24.20;90.00;;;;;;5042804;28;20214;-70
2021/07/25 04:25:07;;;;;;;17.30;13.00;;;24.20;90.00;;;;;;5040079;28;20545;-70
2021/07/25 04:27:34;;;;;;;15.60;12.37;;;24.30;90.00;;;;;;5042619;28;20214;-70
2021/07/25 04:30:01;;;;;;;13.40;11.90;;;24.30;89.90;;;;;;5041028;28;20550;-70
2021/07/25 04:32:28;;;;;;;15.83;12.47;;;24.40;89.60;;;;;;5042715;28;20522;-70
2021/07/25 04:34:56;;;;;;;14.67;13.07;;;24.50;89.40;;;;;;5040681;28;20628;-70
2021/07/25 04:37:25;;;;;;;14.57;12.57;;;24.50;89.20;;;;;;5039940;28;20222;-70
2021/07/25 04:39:53;;;;;;;15.10;11.60;;;24.60;89.70;;;;;;5040512;28;20247;-70
2021/07/25 04:42:23;;;;;;;19.00;12.27;;;24.70;88.90;;;;;;5042895;28;20210;-70
2021/07/25 04:44:56;;;;;;;15.67;13.00;;;24.80;88.40;;;;;;5040951;28;20215;-70
2021/07/25 04:47:31;;;;;;;15.03;11.10;;;24.90;87.90;;;;;;5041717;28;20241;-70
2021/07/25 04:50:06;;;;;;;15.73;11.83;;;24.90;87.60;;;;;;5039725;28;20223;-70
2021/07/25 04:52:40;;;;;;;17.13;13.43;;;25.00;87.30;;;;;;5043498;28;20271;-70
2021/07/25 04:55:10;;;;;;;21.83;14.07;;;25.10;87.10;;;;;;5040565;28;20214;-70
2021/07/25 04:57:44;;;;;;;16.17;13.43;;;25.10;87.00;;;;;;5044881;28;20218;-70
2021/07/25 05:00:14;;;;;;;13.77;12.37;;;25.20;87.10;;;;;;5045477;28;20315;-70
2021/07/25 05:02:43;;;;;;;14.07;12.20;;;25.20;87.10;;;;;;5044001;28;20215;-70
2021/07/25 05:05:11;;;;;;;13.37;11.63;;;25.30;86.30;;;;;;5044815;28;20214;-70
2021/07/25 05:07:40;;;;;;;13.00;11.20;;;25.40;86.00;;;;;;5045037;28;20215;-70
2021/07/25 05:10:10;;;;;;;12.53;10.30;;;25.40;85.40;;;;;;5044874;28;20221;-70
2021/07/25 05:12:49;;;;;;;12.03;10.50;;;25.40;84.90;;;;;;5045571;28;20219;-70
2021/07/25 05:15:20;;;;;;;12.20;11.00;;;25.40;84.40;;;;;;5043035;28;20219;-70
2021/07/25 05:17:54;;;;;;;12.50;11.13;;;25.50;84.00;;;;;;5039444;28;20216;-70
2021/07/25 05:20:31;;;;;;;13.03;9.13;;;25.60;83.80;;;;;;5045752;28;20566;-70
2021/07/25 05:23:10;;;;;;;11.57;10.33;;;25.70;83.50;;;;;;5044754;28;20678;-70
2021/07/25 05:25:40;;;;;;;11.20;9.60;;;25.70;82.70;;;;;;5043042;28;20218;-70
2021/07/25 05:28:07;;;;;;;15.07;9.97;;;25.80;82.10;;;;;;5038850;28;20234;-70
2021/07/25 05:30:39;;;;;;;15.23;11.30;;;25.80;81.80;;;;;;5046749;28;20222;-70
2021/07/25 05:33:07;;;;;;;20.93;11.77;;;25.90;80.90;;;;;;5039366;28;20710;-70
2021/07/25 05:35:34;;;;;;;14.70;11.10;;;26.10;81.10;;;;;;5046100;28;20214;-70
2021/07/25 05:38:02;;;;;;;12.73;9.43;;;26.20;80.10;;;;;;5041589;28;20222;-70
2021/07/25 05:40:30;;;;;;;11.97;8.50;;;26.40;78.90;;;;;;5038677;28;20239;-70
2021/07/25 05:42:56;;;;;;;9.90;8.60;;;26.50;78.20;;;;;;5038484;28;20565;-70
2021/07/25 05:45:28;;;;;;;10.87;8.73;;;26.60;77.60;;;;;;5039380;28;20253;-70
2021/07/25 05:47:55;;;;;;;9.37;8.03;;;26.80;76.50;;;;;;5046076;28;20596;-71
2021/07/25 05:50:22;;;;;;;12.50;8.90;;;26.80;76.10;;;;;;5042368;28;20230;-71
2021/07/25 05:52:55;;;;;;;10.00;8.70;;;26.90;75.40;;;;;;5038663;28;20222;-71
2021/07/25 05:55:33;;;;;;;12.33;9.40;;;26.90;74.90;;;;;;5039679;28;20240;-71
2021/07/25 05:58:01;;;;;;;10.77;8.60;;;26.90;74.40;;;;;;5043903;28;20215;-70
2021/07/25 06:00:28;;;;;;;10.53;8.97;;;26.90;74.60;;;;;;5044031;28;20687;-70
2021/07/25 06:02:57;;;;;;;13.37;8.10;;;27.00;74.60;;;;;;5044408;28;20211;-71
2021/07/25 06:05:32;;;;;;;8.93;8.03;;;27.00;74.10;;;;;;5043698;28;20207;-71
2021/07/25 06:08:00;;;;;;;9.67;8.03;;;27.10;73.70;;;;;;5041716;28;20599;-71
2021/07/25 06:10:30;;;;;;;9.07;8.17;;;27.10;73.80;;;;;;5042945;28;20342;-71
2021/07/25 06:12:59;;;;;;;12.17;8.27;;;27.10;73.70;;;;;;5047254;28;20344;-71
2021/07/25 06:15:27;;;;;;;9.43;8.23;;;27.10;73.70;;;;;;5042894;28;20218;-71
2021/07/25 06:17:55;;;;;;;8.00;7.20;;;27.20;73.30;;;;;;5045201;28;20283;-71
2021/07/25 06:20:23;;;;;;;12.27;8.27;;;27.30;73.40;;;;;;5042598;28;20243;-71
2021/07/25 06:22:52;;;;;;;11.47;8.07;;;27.20;72.70;;;;;;5044835;28;20633;-71
2021/07/25 06:25:23;;;;;;;9.07;7.13;;;27.20;72.40;;;;;;5042540;28;20280;-70
2021/07/25 06:27:53;;;;;;;13.73;7.63;;;27.20;72.10;;;;;;5045391;28;20214;-70
2021/07/25 06:30:21;;;;;;;8.80;7.57;;;27.20;71.60;;;;;;5041519;28;20229;-70
2021/07/25 06:33:15;;;;;;;10.17;7.13;;;27.30;71.70;;;;;;5038091;28;20284;-70
2021/07/25 06:35:43;;;;;;;10.57;7.63;;;27.40;71.50;;;;;;5043137;28;20218;-70
2021/07/25 06:38:12;;;;;;;11.03;7.67;;;27.50;71.80;;;;;;5041046;28;20604;-70
2021/07/25 06:40:42;;;;;;;9.87;7.53;;;27.60;71.40;;;;;;5042033;28;20235;-70
2021/07/25 06:43:09;;;;;;;8.53;7.17;;;27.70;70.10;;;;;;5045017;28;20237;-70
2021/07/25 06:45:36;;;;;;;9.97;7.90;;;27.80;69.50;;;;;;5042305;28;20207;-70
2021/07/25 06:48:04;;;;;;;12.80;7.70;;;27.80;69.80;;;;;;5044633;28;20213;-70
2021/07/25 06:50:31;;;;;;;7.70;7.00;;;27.80;69.00;;;;;;5042131;28;20293;-70
2021/07/25 06:52:59;;;;;;;8.50;6.57;;;27.80;68.30;;;;;;5043710;28;20217;-70
2021/07/25 06:55:28;;;;;;;10.53;6.67;;;27.80;68.50;;;;;;5041958;28;20539;-70
2021/07/25 06:57:56;;;;;;;8.03;7.23;;;27.80;69.00;;;;;;5044356;28;20221;-70
2021/07/25 07:00:23;;;;;;;9.57;6.93;;;27.90;68.70;;;;;;5042078;28;20230;-70
2021/07/25 07:02:54;;;;;;;9.20;6.60;;;27.80;68.10;;;;;;5044301;28;20225;-71
2021/07/25 07:05:27;;;;;;;6.90;5.90;;;27.90;68.30;;;;;;5041440;28;20225;-70
2021/07/25 07:07:56;;;;;;;6.20;5.70;;;27.90;67.40;;;;;;5033470;28;20210;-70
2021/07/25 07:10:29;;;;;;;10.40;6.97;;;28.00;67.90;;;;;;5036943;28;20234;-70
2021/07/25 07:12:57;;;;;;;11.83;6.77;;;28.00;67.40;;;;;;5044319;28;20215;-70
2021/07/25 07:15:26;;;;;;;9.13;6.13;;;28.10;66.80;;;;;;5041434;28;20594;-71
2021/07/25 07:17:54;;;;;;;10.27;6.30;;;28.10;66.60;;;;;;5043634;28;20241;-70
2021/07/25 07:20:21;;;;;;;7.77;6.83;;;28.20;66.10;;;;;;5041623;28;20285;-70
2021/07/25 07:22:58;;;;;;;7.20;6.03;;;28.20;66.10;;;;;;5043624;28;20214;-70
2021/07/25 07:25:28;;;;;;;8.67;6.17;;;28.30;65.30;;;;;;5042552;28;20206;-70
2021/07/25 07:27:55;;;;;;;8.70;5.57;;;28.40;65.20;;;;;;5042366;28;20712;-70
2021/07/25 07:30:23;;;;;;;9.37;5.37;;;28.50;63.50;;;;;;5042574;28;20211;-70
2021/07/25 07:32:50;;;;;;;9.33;5.90;;;28.50;62.90;;;;;;5042384;28;20221;-70
2021/07/25 07:35:24;;;;;;;8.50;5.73;;;28.70;61.90;;;;;;5042447;28;20210;-70
2021/07/25 07:37:51;;;;;;;6.00;5.43;;;28.70;62.80;;;;;;5040047;28;20244;-70
2021/07/25 07:40:19;;;;;;;9.47;5.73;;;28.90;60.90;;;;;;5041409;28;20238;-70
2021/07/25 07:42:46;;;;;;;7.43;5.40;;;29.00;61.00;;;;;;5042815;28;20214;-70
2021/07/25 07:45:15;;;;;;;6.63;6.03;;;29.00;61.30;;;;;;5041730;28;20289;-70
2021/07/25 07:47:42;;;;;;;8.03;6.13;;;29.00;62.10;;;;;;5042881;28;20219;-70
2021/07/25 07:50:09;;;;;;;11.17;6.17;;;29.10;62.00;;;;;;5041906;28;20225;-70
2021/07/25 07:52:36;;;;;;;8.60;6.07;;;29.20;61.50;;;;;;5042427;28;20219;-70
2021/07/25 07:55:04;;;;;;;6.70;5.70;;;29.30;61.60;;;;;;5042078;28;20218;-70
2021/07/25 07:57:31;;;;;;;6.90;5.50;;;29.50;61.70;;;;;;5040284;28;20214;-70
2021/07/25 07:59:58;;;;;;;6.80;5.93;;;29.70;61.60;;;;;;5042191;28;20280;-70
2021/07/25 08:02:25;;;;;;;5.63;5.13;;;29.80;60.40;;;;;;5042178;28;20686;-70
2021/07/25 08:04:52;;;;;;;7.60;5.03;;;30.00;59.10;;;;;;5041746;28;20635;-70
2021/07/25 08:07:19;;;;;;;5.60;4.80;;;30.10;58.00;;;;;;5040581;28;20498;-70
2021/07/25 08:09:47;;;;;;;5.30;4.80;;;30.30;57.30;;;;;;5041376;28;20234;-70
2021/07/25 08:12:14;;;;;;;6.13;5.20;;;30.50;56.60;;;;;;5042223;28;20643;-70
2021/07/25 08:14:41;;;;;;;5.90;4.83;;;30.60;55.80;;;;;;5042636;28;20562;-70
2021/07/25 08:17:08;;;;;;;6.90;4.53;;;30.80;54.80;;;;;;5041237;28;20207;-70
2021/07/25 08:19:35;;;;;;;5.13;4.40;;;30.90;54.10;;;;;;5043158;28;20217;-70
2021/07/25 08:22:03;;;;;;;7.30;5.07;;;31.20;54.50;;;;;;5040822;28;20242;-70
2021/07/25 08:24:30;;;;;;;5.40;4.10;;;31.40;53.40;;;;;;5038718;28;20211;-70
2021/07/25 08:26:57;;;;;;;5.67;4.27;;;31.60;51.20;;;;;;5043258;28;20682;-70
2021/07/25 08:29:25;;;;;;;8.50;4.53;;;31.70;50.90;;;;;;5043297;28;20222;-70
2021/07/25 08:31:52;;;;;;;10.77;4.10;;;31.80;50.00;;;;;;5047366;28;20237;-70
2021/07/25 08:34:19;;;;;;;7.20;3.90;;;31.90;49.10;;;;;;5044106;28;20226;-71
2021/07/25 08:36:46;;;;;;;7.83;3.70;;;32.00;48.60;;;;;;5040153;28;20218;-71
2021/07/25 08:39:13;;;;;;;5.07;3.77;;;32.10;47.40;;;;;;5039729;28;20247;-71
2021/07/25 08:42:00;;;;;;;5.30;4.20;;;32.20;46.30;;;;;;5047251;28;20304;-71
2021/07/25 08:44:44;;;;;;;3.93;3.53;;;32.30;45.90;;;;;;5044413;28;20211;-71
2021/07/25 08:47:22;;;;;;;6.40;3.53;;;32.50;44.50;;;;;;5040582;28;20284;-71
2021/07/25 08:50:00;;;;;;;7.03;3.60;;;32.70;45.40;;;;;;5045732;28;20214;-71
2021/07/25 08:52:29;;;;;;;4.50;3.20;;;32.80;45.10;;;;;;5043572;28;20249;-71
2021/07/25 08:54:58;;;;;;;4.90;3.33;;;33.00;45.10;;;;;;5042586;28;20284;-71
2021/07/25 08:57:28;;;;;;;3.83;3.10;;;33.20;45.30;;;;;;5043720;28;20277;-71
2021/07/25 08:59:57;;;;;;;4.10;3.60;;;33.30;42.80;;;;;;5046687;28;20627;-71
2021/07/25 09:02:29;;;;;;;4.13;3.40;;;33.50;43.30;;;;;;5043153;28;20243;-71
2021/07/25 09:04:58;;;;;;;4.30;3.90;;;33.70;42.00;;;;;;5039848;28;20233;-71
2021/07/25 09:07:28;;;;;;;5.67;3.20;;;33.80;41.90;;;;;;5046759;28;20627;-71
2021/07/25 09:10:05;;;;;;;6.73;3.63;;;34.00;42.00;;;;;;5043512;28;20219;-71
2021/07/25 09:12:33;;;;;;;5.60;3.77;;;33.90;37.00;;;;;;5045248;28;20577;-71
2021/07/25 09:15:15;;;;;;;4.00;3.10;;;33.90;38.60;;;;;;5044997;28;20230;-71
2021/07/25 09:17:43;;;;;;;5.03;3.77;;;33.90;38.10;;;;;;5043520;28;20249;-71
2021/07/25 09:20:19;;;;;;;4.93;3.33;;;33.80;39.40;;;;;;5046476;28;20218;-71
2021/07/25 09:22:49;;;;;;;7.30;3.20;;;33.90;40.60;;;;;;5040212;28;20308;-71
2021/07/25 09:25:24;;;;;;;4.00;3.57;;;33.80;41.00;;;;;;5043153;28;20245;-71
2021/07/25 09:27:54;;;;;;;6.43;4.13;;;33.80;40.80;;;;;;5044777;28;20241;-71
2021/07/25 09:30:22;;;;;;;10.80;3.67;;;33.70;39.60;;;;;;5041621;28;20207;-71
2021/07/25 09:32:49;;;;;;;3.93;3.00;;;33.60;38.20;;;;;;5044513;28;20590;-71
2021/07/25 09:35:27;;;;;;;3.47;3.17;;;33.40;37.90;;;;;;5044533;28;20375;-71
2021/07/25 09:37:57;;;;;;;5.37;3.03;;;33.30;39.50;;;;;;5043053;28;20222;-71
2021/07/25 09:40:29;;;;;;;3.77;3.30;;;33.20;40.30;;;;;;5045355;28;20272;-71
2021/07/25 09:43:23;;;;;;;7.27;3.37;;;33.10;40.30;;;;;;5038716;28;20235;-71
2021/07/25 09:45:50;;;;;;;6.53;3.43;;;33.00;41.70;;;;;;5045512;28;20225;-71
2021/07/25 09:48:18;;;;;;;5.20;3.13;;;32.90;41.10;;;;;;5042870;28;20549;-71
2021/07/25 09:50:46;;;;;;;5.87;3.50;;;32.80;40.90;;;;;;5045511;28;20210;-71
2021/07/25 09:53:14;;;;;;;4.50;3.53;;;32.70;40.60;;;;;;5042824;28;20219;-71
2021/07/25 09:55:41;;;;;;;6.47;3.80;;;32.60;39.90;;;;;;5045442;28;20214;-71
2021/07/25 09:58:08;;;;;;;6.37;3.20;;;32.50;39.50;;;;;;5042008;28;20210;-71
2021/07/25 10:00:43;;;;;;;6.90;3.50;;;32.40;39.00;;;;;;5043374;28;20207;-71
2021/07/25 10:03:32;;;;;;;5.07;3.00;;;32.50;39.50;;;;;;5038575;28;20262;-71
2021/07/25 10:06:22;;;;;;;4.47;3.20;;;32.50;39.20;;;;;;5044087;28;20277;-71
2021/07/25 10:09:09;;;;;;;7.27;2.87;;;32.50;39.20;;;;;;5043284;28;20211;-71
2021/07/25 10:11:40;;;;;;;4.73;3.27;;;32.60;38.90;;;;;;5038585;28;20219;-71
2021/07/25 10:14:07;;;;;;;6.87;3.53;;;32.80;39.20;;;;;;5045159;28;20218;-71
2021/07/25 10:16:34;;;;;;;9.07;3.97;;;33.00;39.30;;;;;;5042401;28;20214;-71
2021/07/25 10:19:04;;;;;;;4.30;3.30;;;33.20;38.60;;;;;;5045598;28;20221;-71
2021/07/25 10:21:33;;;;;;;4.27;3.70;;;33.30;37.60;;;;;;5042482;28;20588;-71
2021/07/25 10:24:03;;;;;;;4.00;3.60;;;33.40;38.00;;;;;;5045031;28;20214;-71
2021/07/25 10:26:30;;;;;;;5.53;4.00;;;33.40;40.20;;;;;;5042367;28;20215;-71
2021/07/25 10:28:59;;;;;;;6.87;3.87;;;33.50;40.80;;;;;;5044705;28;20210;-71
2021/07/25 10:31:27;;;;;;;5.23;3.40;;;33.60;41.40;;;;;;5041418;28;20271;-71
2021/07/25 10:33:55;;;;;;;3.90;3.50;;;33.70;41.30;;;;;;5042222;28;20229;-71
2021/07/25 10:36:25;;;;;;;5.47;3.53;;;33.70;41.40;;;;;;5044429;28;20267;-71
2021/07/25 10:38:52;;;;;;;4.80;3.43;;;33.60;41.40;;;;;;5039436;28;20683;-71
2021/07/25 10:41:25;;;;;;;4.17;3.27;;;33.50;41.60;;;;;;5044066;28;20685;-71
2021/07/25 10:43:53;;;;;;;4.00;3.53;;;33.40;40.80;;;;;;5042638;28;20215;-71
2021/07/25 10:46:23;;;;;;;10.07;3.80;;;33.20;40.70;;;;;;5043287;28;20211;-71
2021/07/25 10:49:03;;;;;;;4.47;3.70;;;33.10;40.70;;;;;;5043070;28;20222;-71
2021/07/25 10:51:34;;;;;;;4.97;4.27;;;33.00;40.60;;;;;;5040828;28;20214;-71
2021/07/25 10:54:22;;;;;;;5.27;3.97;;;32.80;40.70;;;;;;5037293;28;20280;-71
2021/07/25 10:56:59;;;;;;;4.97;3.53;;;32.80;40.30;;;;;;5042186;28;20602;-71
2021/07/25 10:59:58;;;;;;;7.23;3.20;;;32.70;39.50;;;;;;5041329;28;20349;-71
2021/07/25 11:02:25;;;;;;;4.13;3.43;;;32.70;39.80;;;;;;5037073;28;20689;-71
2021/07/25 11:04:55;;;;;;;5.60;3.37;;;32.50;41.10;;;;;;5044619;28;20218;-71
2021/07/25 11:07:22;;;;;;;4.17;3.77;;;32.40;40.80;;;;;;5037032;28;20215;-71
2021/07/25 11:09:57;;;;;;;5.60;3.90;;;32.30;40.80;;;;;;5037380;28;20219;-71
2021/07/25 11:12:25;;;;;;;4.77;3.73;;;32.20;42.10;;;;;;5038479;28;20252;-71
2021/07/25 11:14:55;;;;;;;5.03;3.53;;;32.10;42.00;;;;;;5043769;28;20279;-71
2021/07/25 11:17:44;;;;;;;5.40;4.00;;;32.00;42.30;;;;;;5041686;28;20211;-71
2021/07/25 11:20:34;;;;;;;4.37;3.67;;;31.90;42.60;;;;;;5040577;28;20222;-71
2021/07/25 11:23:02;;;;;;;3.97;3.50;;;31.80;41.70;;;;;;5042206;28;20304;-71
2021/07/25 11:25:37;;;;;;;4.17;3.77;;;31.90;42.20;;;;;;5041756;28;20359;-71
2021/07/25 11:28:09;;;;;;;5.30;3.50;;;32.00;43.70;;;;;;5044222;28;20218;-71
2021/07/25 11:30:54;;;;;;;6.07;3.27;;;32.20;44.80;;;;;;5037474;28;20281;-71
2021/07/25 11:33:43;;;;;;;5.23;3.60;;;32.50;45.60;;;;;;5045736;28;20214;-71
2021/07/25 11:36:21;;;;;;;6.93;3.87;;;32.70;46.10;;;;;;5040458;28;20261;-71
2021/07/25 11:38:58;;;;;;;7.80;4.83;;;32.80;45.70;;;;;;5040556;28;20272;-71
2021/07/25 11:41:28;;;;;;;10.07;3.93;;;33.20;45.20;;;;;;5036978;28;20639;-71
2021/07/25 11:44:10;;;;;;;5.90;3.70;;;33.60;43.40;;;;;;5036932;28;20689;-71
2021/07/25 11:46:45;;;;;;;5.13;3.50;;;34.10;41.60;;;;;;5040653;28;20210;-71
2021/07/25 11:49:13;;;;;;;5.80;3.97;;;34.30;40.30;;;;;;5041526;28;20299;-71
2021/07/25 11:51:49;;;;;;;3.87;3.57;;;34.20;40.40;;;;;;5043139;28;20272;-71
2021/07/25 11:54:21;;;;;;;6.23;3.50;;;34.10;40.60;;;;;;5037096;28;20544;-71
2021/07/25 11:57:04;;;;;;;6.27;3.80;;;34.20;41.30;;;;;;5037172;28;20260;-71
2021/07/25 11:59:39;;;;;;;4.00;3.60;;;34.50;40.70;;;;;;5041922;28;20222;-71
2021/07/25 12:02:08;;;;;;;12.90;4.87;;;34.90;39.70;;;;;;5044319;28;20241;-71
2021/07/25 12:04:44;;;;;;;6.37;3.57;;;35.20;39.00;;;;;;5044622;28;20221;-71
2021/07/25 12:07:15;;;;;;;7.00;4.00;;;35.20;38.80;;;;;;5041114;28;20272;-71
2021/07/25 12:09:46;;;;;;;5.97;3.93;;;35.40;38.80;;;;;;5044337;28;20222;-71
2021/07/25 12:12:20;;;;;;;4.63;3.90;;;35.60;37.80;;;;;;5045551;28;20259;-71
2021/07/25 12:14:52;;;;;;;9.27;4.33;;;35.80;37.00;;;;;;5046072;28;20275;-71
2021/07/25 12:17:38;;;;;;;8.73;4.60;;;35.80;37.60;;;;;;5045624;28;20223;-71
2021/07/25 12:20:16;;;;;;;4.77;3.47;;;35.80;37.40;;;;;;5047872;28;20206;-71
2021/07/25 12:23:07;;;;;;;8.00;4.10;;;35.70;37.00;;;;;;5046007;28;20246;-71
2021/07/25 12:25:35;;;;;;;19.87;7.70;;;35.60;38.30;;;;;;5044612;28;20591;-71
2021/07/25 12:28:09;;;;;;;10.00;5.40;;;35.60;38.80;;;;;;5046377;28;20214;-71
2021/07/25 12:30:59;;;;;;;6.60;4.97;;;35.60;37.90;;;;;;5046448;28;20579;-71
2021/07/25 12:33:32;;;;;;;8.13;4.43;;;35.80;37.50;;;;;;5042292;28;20215;-71
2021/07/25 12:36:20;;;;;;;6.77;4.67;;;35.90;37.90;;;;;;5045859;28;20233;-72
2021/07/25 12:38:47;;;;;;;7.70;4.90;;;36.10;37.00;;;;;;5039662;28;20655;-71
2021/07/25 12:41:14;;;;;;;8.97;5.30;;;36.20;37.80;;;;;;5047171;28;20218;-71
2021/07/25 12:43:57;;;;;;;9.67;4.90;;;36.20;38.10;;;;;;5043504;28;20305;-71
2021/07/25 12:46:30;;;;;;;6.23;4.40;;;36.00;37.20;;;;;;5044082;28;20215;-71
2021/07/25 12:49:06;;;;;;;8.53;4.73;;;35.80;37.40;;;;;;5044557;28;20268;-71
2021/07/25 12:51:42;;;;;;;6.87;4.50;;;35.50;37.70;;;;;;5039670;28;20222;-71
2021/07/25 12:54:12;;;;;;;8.80;4.97;;;35.40;38.40;;;;;;5041371;28;20215;-71
2021/07/25 12:56:39;;;;;;;9.07;4.73;;;35.30;38.80;;;;;;5045160;28;20247;-71